Quarteles, New Mexico
Current Conditions -  °F | °C
As of 6:15 AM on Sunday 23 Nov 2014 (Local Time) from KLAM Reporting Station
Scattered Clouds Scattered Clouds  
Wind Chill: -3°   Ceiling: Unl
Heat Index:   Visibility: 10mi
Dew Point: -4°   Wind: 21mph
Humidity: 61%   Direction: 280°W
Pressure: 29.76"   Gusts: 25mph
Location:  35.9775°N, 106.158°W
Report Text: KLAM 231315Z AUTO 28018G22KT 10SM SCT021 SCT029 SCT039 03/M04 A2976 RMK AO2 T00261042
Loading
Personal Weather Stations






























Interactive Weather Map New forecast layout! Learn more

10-Day Weather Forecast

Advertisements
Track Severe Weather on mobile